Time;durP1;ratioP1;P1;durP2;ratioP2;P2;SDS_P1;SDS_P2;PMS_P1;PMS_P2;Temp;Humidity;BMP_temperature;BMP_pressure;BME280_temperature;BME280_humidity;BME280_pressure;Samples;Min_cycle;Max_cycle;Signal;HPM_P1;HPM_P2
2021/05/03 00:00:00;;;;;;;6.28;5.68;;;5.90;99.90;;;;;;2088230;28;20048;-67
2021/05/03 00:01:00;;;;;;;7.53;4.85;;;5.90;99.90;;;;;;2088594;28;20025;-67
2021/05/03 00:02:01;;;;;;;6.20;5.60;;;5.90;99.90;;;;;;2088327;28;20064;-67
2021/05/03 00:03:02;;;;;;;7.88;6.07;;;5.90;99.90;;;;;;2087891;28;20045;-67
2021/05/03 00:04:02;;;;;;;7.32;5.22;;;5.90;99.90;;;;;;2087354;28;20047;-67
2021/05/03 00:05:05;;;;;;;7.10;6.40;;;5.90;99.90;;;;;;2087945;28;20028;-67
2021/05/03 00:06:05;;;;;;;6.97;5.93;;;5.90;99.90;;;;;;2088345;28;20480;-67
2021/05/03 00:07:06;;;;;;;7.60;6.10;;;5.90;99.90;;;;;;2084925;28;20429;-67
2021/05/03 00:08:06;;;;;;;6.30;5.70;;;5.80;99.90;;;;;;2082206;28;20029;-67
2021/05/03 00:09:07;;;;;;;7.72;6.63;;;5.80;99.90;;;;;;2080202;28;20112;-67
2021/05/03 00:10:08;;;;;;;7.82;6.22;;;5.80;99.90;;;;;;2080007;28;20021;-67
2021/05/03 00:11:09;;;;;;;6.25;5.65;;;5.80;99.90;;;;;;2079962;28;20021;-67
2021/05/03 00:12:10;;;;;;;6.20;5.60;;;5.80;99.90;;;;;;2081606;28;20029;-67
2021/05/03 00:13:11;;;;;;;7.13;5.90;;;5.80;99.90;;;;;;2087526;28;20076;-67
2021/05/03 00:14:11;;;;;;;6.72;5.90;;;5.70;99.90;;;;;;2088334;28;20078;-67
2021/05/03 00:15:14;;;;;;;7.35;5.40;;;5.70;99.90;;;;;;2088283;28;20013;-67
2021/05/03 00:16:14;;;;;;;5.90;5.30;;;5.70;99.90;;;;;;2088241;28;20116;-67
2021/05/03 00:17:15;;;;;;;6.18;5.57;;;5.70;99.90;;;;;;2088270;28;20115;-67
2021/05/03 00:18:15;;;;;;;6.40;5.80;;;5.70;99.90;;;;;;2081173;28;20037;-67
2021/05/03 00:19:16;;;;;;;6.50;5.85;;;5.70;99.90;;;;;;2083175;28;20106;-67
2021/05/03 00:20:17;;;;;;;6.70;5.93;;;5.70;99.90;;;;;;2082786;28;20032;-67
2021/05/03 00:21:17;;;;;;;7.57;5.90;;;5.70;99.90;;;;;;2088160;28;20195;-67
2021/05/03 00:22:18;;;;;;;7.78;6.57;;;5.60;99.90;;;;;;2087648;28;20039;-67
2021/05/03 00:23:18;;;;;;;7.00;6.00;;;5.60;99.90;;;;;;2088187;28;20361;-67
2021/05/03 00:24:19;;;;;;;7.07;6.30;;;5.60;99.90;;;;;;2088329;28;20027;-67
2021/05/03 00:25:19;;;;;;;7.65;5.90;;;5.60;99.90;;;;;;2087977;28;20032;-67
2021/05/03 00:26:20;;;;;;;7.35;6.15;;;5.60;99.90;;;;;;2088283;28;20036;-67
2021/05/03 00:27:20;;;;;;;7.20;6.40;;;5.60;99.90;;;;;;2087841;28;20028;-67
2021/05/03 00:28:21;;;;;;;6.28;5.68;;;5.50;99.90;;;;;;2080330;28;20022;-67
2021/05/03 00:29:22;;;;;;;5.68;5.18;;;5.60;99.90;;;;;;2079895;28;20021;-67
2021/05/03 00:30:22;;;;;;;7.43;5.68;;;5.50;99.90;;;;;;2080264;28;20500;-67
2021/05/03 00:31:23;;;;;;;7.57;6.30;;;5.50;99.90;;;;;;2079989;28;20029;-67
2021/05/03 00:32:24;;;;;;;7.68;6.30;;;5.50;99.90;;;;;;2079778;28;20500;-67
2021/05/03 00:33:24;;;;;;;6.32;5.32;;;5.50;99.90;;;;;;2079884;28;20468;-67
2021/05/03 00:34:25;;;;;;;9.05;6.43;;;5.50;99.90;;;;;;2079948;28;20017;-67
2021/05/03 00:35:25;;;;;;;8.25;6.60;;;5.50;99.90;;;;;;2079841;28;20099;-67
2021/05/03 00:36:26;;;;;;;7.00;6.00;;;5.50;99.90;;;;;;2079847;28;20049;-67
2021/05/03 00:37:27;;;;;;;7.95;5.13;;;5.50;99.90;;;;;;2079595;28;20033;-67
2021/05/03 00:38:27;;;;;;;7.43;5.93;;;5.50;99.90;;;;;;2084674;28;20036;-67
2021/05/03 00:39:28;;;;;;;6.40;5.80;;;5.40;99.90;;;;;;2085604;28;20075;-67
2021/05/03 00:40:29;;;;;;;7.60;6.47;;;5.40;99.90;;;;;;2071829;28;20022;-67
2021/05/03 00:41:29;;;;;;;7.38;6.63;;;5.40;99.90;;;;;;2075812;28;20040;-67
2021/05/03 00:42:30;;;;;;;8.73;6.35;;;5.40;99.90;;;;;;2079283;28;20120;-67
2021/05/03 00:43:30;;;;;;;7.95;6.45;;;5.40;99.90;;;;;;2087166;28;20021;-67
2021/05/03 00:44:31;;;;;;;10.55;6.72;;;5.40;99.90;;;;;;2087527;28;20028;-67
2021/05/03 00:45:33;;;;;;;7.88;6.97;;;5.40;99.90;;;;;;2087247;28;20067;-67
2021/05/03 00:46:34;;;;;;;6.93;5.75;;;5.40;99.90;;;;;;2082032;28;20033;-68
2021/05/03 00:47:36;;;;;;;7.20;5.55;;;5.30;99.90;;;;;;2079453;28;20049;-67
2021/05/03 00:48:36;;;;;;;7.18;6.25;;;5.30;99.90;;;;;;2071410;28;20053;-67
2021/05/03 00:49:37;;;;;;;8.80;6.60;;;5.30;99.90;;;;;;2076320;28;20072;-67
2021/05/03 00:50:37;;;;;;;7.00;6.30;;;5.30;99.90;;;;;;2079351;28;20464;-67
2021/05/03 00:51:38;;;;;;;6.97;6.30;;;5.30;99.90;;;;;;2086732;28;20480;-67
2021/05/03 00:52:39;;;;;;;7.57;6.85;;;5.30;99.90;;;;;;2087303;28;20029;-67
2021/05/03 00:53:39;;;;;;;6.75;5.97;;;5.30;99.90;;;;;;2088002;28;20456;-67
2021/05/03 00:54:40;;;;;;;7.07;6.47;;;5.30;99.90;;;;;;2087302;28;20037;-67
2021/05/03 00:55:42;;;;;;;7.32;6.53;;;5.30;99.90;;;;;;2072126;28;20109;-67
2021/05/03 00:56:42;;;;;;;6.75;6.05;;;5.30;99.90;;;;;;2078928;28;20545;-67
2021/05/03 00:57:43;;;;;;;8.15;5.40;;;5.20;99.90;;;;;;2084396;28;20074;-67
2021/05/03 00:58:44;;;;;;;9.77;6.72;;;5.20;99.90;;;;;;2088134;28;20021;-67
2021/05/03 00:59:45;;;;;;;7.50;6.30;;;5.20;99.90;;;;;;2087851;28;20021;-67
2021/05/03 01:00:46;;;;;;;6.82;6.13;;;5.20;99.90;;;;;;2088448;28;20393;-67
2021/05/03 01:01:46;;;;;;;6.72;5.65;;;5.20;99.90;;;;;;2088108;28;20029;-67
2021/05/03 01:02:47;;;;;;;7.63;6.10;;;5.20;99.90;;;;;;2086368;28;20025;-67
2021/05/03 01:03:48;;;;;;;8.43;6.95;;;5.20;99.90;;;;;;2087470;28;20033;-67
2021/05/03 01:04:48;;;;;;;7.45;6.53;;;5.20;99.90;;;;;;2087749;28;20060;-67
2021/05/03 01:05:49;;;;;;;6.95;5.80;;;5.20;99.90;;;;;;2083139;28;20124;-67
2021/05/03 01:06:50;;;;;;;7.80;6.75;;;5.20;99.90;;;;;;2079627;28;20036;-67
2021/05/03 01:07:50;;;;;;;7.95;6.20;;;5.20;99.90;;;;;;2087775;28;20036;-67
2021/05/03 01:08:51;;;;;;;9.45;7.18;;;5.10;99.90;;;;;;2088068;28;20499;-68
2021/05/03 01:09:51;;;;;;;8.00;7.30;;;5.10;99.90;;;;;;2088091;28;20028;-67
2021/05/03 01:10:52;;;;;;;7.07;6.38;;;5.10;99.90;;;;;;2087626;28;20489;-67
2021/05/03 01:11:52;;;;;;;7.95;6.60;;;5.10;99.90;;;;;;2088069;28;20372;-67
2021/05/03 01:12:54;;;;;;;7.57;6.78;;;5.10;99.90;;;;;;2087173;28;20029;-67
2021/05/03 01:13:54;;;;;;;7.57;6.88;;;5.10;99.90;;;;;;2087964;28;20037;-67
2021/05/03 01:14:55;;;;;;;10.65;6.32;;;5.10;99.90;;;;;;2087862;28;20047;-67
2021/05/03 01:15:55;;;;;;;11.38;6.78;;;5.10;99.90;;;;;;2087756;28;20025;-67
2021/05/03 01:16:56;;;;;;;7.68;6.70;;;5.10;99.90;;;;;;2079707;28;20374;-67
2021/05/03 01:18:02;;;;;;;7.50;6.80;;;5.10;99.90;;;;;;2079684;28;20746;-67
2021/05/03 01:19:04;;;;;;;7.95;7.15;;;5.10;99.90;;;;;;2079655;28;20373;-67
2021/05/03 01:20:13;;;;;;;7.03;6.35;;;5.00;99.90;;;;;;2080048;28;20026;-67
2021/05/03 01:21:22;;;;;;;8.63;6.80;;;5.00;99.90;;;;;;2079616;28;20365;-67
2021/05/03 01:22:23;;;;;;;7.88;6.93;;;5.00;99.90;;;;;;2079383;28;20479;-68
2021/05/03 01:23:24;;;;;;;7.60;6.40;;;5.00;99.90;;;;;;2079262;28;20022;-67
2021/05/03 01:24:25;;;;;;;7.90;7.10;;;5.00;99.90;;;;;;2079773;28;20041;-67
2021/05/03 01:25:31;;;;;;;8.15;7.28;;;5.00;99.90;;;;;;2076896;28;20113;-67
2021/05/03 01:26:31;;;;;;;8.32;6.43;;;5.00;99.90;;;;;;2079671;28;20180;-67
2021/05/03 01:27:34;;;;;;;7.80;6.75;;;5.00;99.90;;;;;;2079591;28;20107;-67
2021/05/03 01:28:35;;;;;;;8.30;6.57;;;4.90;99.90;;;;;;2079557;28;20026;-67
2021/05/03 01:29:35;;;;;;;7.40;6.70;;;4.90;99.90;;;;;;2079404;28;20071;-67
2021/05/03 01:30:38;;;;;;;8.57;7.47;;;5.00;99.90;;;;;;2079504;28;20044;-67
2021/05/03 01:31:39;;;;;;;7.30;6.60;;;4.90;99.90;;;;;;2082814;28;20025;-67
2021/05/03 01:32:40;;;;;;;9.98;7.35;;;4.90;99.90;;;;;;2080193;28;20794;-67
2021/05/03 01:33:40;;;;;;;7.72;7.03;;;4.90;99.90;;;;;;2078708;28;20029;-67
2021/05/03 01:34:42;;;;;;;7.05;6.38;;;4.90;99.90;;;;;;2083982;28;20396;-67
2021/05/03 01:35:47;;;;;;;6.03;5.53;;;4.90;99.90;;;;;;2086925;28;20037;-67
2021/05/03 01:36:48;;;;;;;7.72;6.93;;;4.90;99.90;;;;;;2082123;28;20033;-67
2021/05/03 01:37:53;;;;;;;7.05;6.35;;;4.90;99.90;;;;;;2079811;28;20080;-67
2021/05/03 01:38:54;;;;;;;7.85;6.85;;;4.90;99.90;;;;;;2079565;28;20033;-67
2021/05/03 01:39:54;;;;;;;8.20;7.05;;;4.80;99.90;;;;;;2079723;28;20045;-67
2021/05/03 01:40:55;;;;;;;8.27;6.63;;;4.80;99.90;;;;;;2079381;28;20037;-67
2021/05/03 01:41:55;;;;;;;7.65;6.95;;;4.80;99.90;;;;;;2079438;28;20100;-67
2021/05/03 01:43:08;;;;;;;7.68;6.82;;;4.80;99.90;;;;;;2081605;28;20104;-67
2021/05/03 01:44:10;;;;;;;7.43;6.72;;;4.90;99.90;;;;;;2087943;28;20480;-67
2021/05/03 01:45:12;;;;;;;7.72;6.50;;;4.80;99.90;;;;;;2084134;28;20460;-67
2021/05/03 01:46:13;;;;;;;8.18;7.35;;;4.80;99.90;;;;;;2079331;28;20033;-67
2021/05/03 01:47:14;;;;;;;8.50;7.20;;;4.80;99.90;;;;;;2079632;28;20053;-67
2021/05/03 01:48:21;;;;;;;7.35;6.53;;;4.80;99.90;;;;;;2079627;28;20052;-67
2021/05/03 01:49:22;;;;;;;9.88;7.10;;;4.80;99.90;;;;;;2079842;28;20464;-67
2021/05/03 01:50:23;;;;;;;7.97;7.22;;;4.80;99.90;;;;;;2079586;28;20051;-67
2021/05/03 01:51:24;;;;;;;8.65;6.97;;;4.80;99.90;;;;;;2085110;28;20021;-67
2021/05/03 01:52:25;;;;;;;7.75;6.95;;;4.80;99.90;;;;;;2082845;28;20030;-67
2021/05/03 01:53:26;;;;;;;7.40;6.68;;;4.80;99.90;;;;;;2079530;28;20029;-67
2021/05/03 01:54:28;;;;;;;8.30;6.40;;;4.80;99.90;;;;;;2079457;28;20035;-67
2021/05/03 01:55:30;;;;;;;7.80;6.75;;;4.80;99.90;;;;;;2079462;28;20038;-67
2021/05/03 01:56:31;;;;;;;7.32;6.60;;;4.80;99.90;;;;;;2079435;28;20044;-67
2021/05/03 01:57:32;;;;;;;7.72;6.88;;;4.80;99.90;;;;;;2082393;28;20579;-67
2021/05/03 01:58:32;;;;;;;8.85;7.80;;;4.80;99.90;;;;;;2087752;28;20465;-67
2021/05/03 01:59:34;;;;;;;7.45;6.25;;;4.80;99.90;;;;;;2087573;28;20143;-67
2021/05/03 02:00:35;;;;;;;8.02;7.22;;;4.80;99.90;;;;;;2088744;28;20096;-67
2021/05/03 02:01:40;;;;;;;9.35;7.18;;;4.80;99.90;;;;;;2090684;28;20081;-67
2021/05/03 02:02:48;;;;;;;7.45;6.75;;;4.80;99.90;;;;;;2090153;28;20032;-67
2021/05/03 02:03:48;;;;;;;7.85;7.13;;;4.70;99.90;;;;;;2090366;28;20033;-67
2021/05/03 02:04:49;;;;;;;9.95;8.05;;;4.70;99.90;;;;;;2090462;28;20035;-67
2021/05/03 02:05:50;;;;;;;8.13;7.07;;;4.70;99.90;;;;;;2090216;28;20475;-67
2021/05/03 02:06:51;;;;;;;7.93;7.13;;;4.70;99.90;;;;;;2087295;28;20026;-67
2021/05/03 02:08:00;;;;;;;9.05;7.45;;;4.70;99.90;;;;;;2082162;28;20108;-67
2021/05/03 02:09:11;;;;;;;8.75;7.35;;;4.70;99.90;;;;;;2086033;28;20024;-67
2021/05/03 02:10:13;;;;;;;8.30;6.95;;;4.70;99.90;;;;;;2088835;28;20036;-67
2021/05/03 02:11:13;;;;;;;7.65;6.55;;;4.70;99.90;;;;;;2080651;28;20476;-67
2021/05/03 02:12:14;;;;;;;7.72;6.93;;;4.70;99.90;;;;;;2080793;28;20436;-67
2021/05/03 02:13:15;;;;;;;7.07;6.38;;;4.70;99.90;;;;;;2082512;28;20416;-67
2021/05/03 02:14:15;;;;;;;7.30;6.57;;;4.70;99.90;;;;;;2082046;28;20021;-67
2021/05/03 02:15:16;;;;;;;9.60;7.47;;;4.70;99.90;;;;;;2082219;28;20147;-67
2021/05/03 02:16:17;;;;;;;8.88;6.30;;;4.70;99.90;;;;;;2082049;28;20029;-67
2021/05/03 02:17:17;;;;;;;8.18;6.25;;;4.70;99.90;;;;;;2088099;28;20025;-67
2021/05/03 02:18:19;;;;;;;7.10;6.40;;;4.70;99.90;;;;;;2090307;28;20492;-67
2021/05/03 02:19:19;;;;;;;7.55;6.75;;;4.70;99.90;;;;;;2090442;28;20411;-67
2021/05/03 02:20:20;;;;;;;7.88;7.07;;;4.70;99.90;;;;;;2082460;28;20100;-67
2021/05/03 02:21:21;;;;;;;8.23;7.38;;;4.70;99.90;;;;;;2082582;28;20030;-67
2021/05/03 02:22:21;;;;;;;8.68;6.80;;;4.70;99.90;;;;;;2081632;28;20389;-67
2021/05/03 02:23:22;;;;;;;7.80;6.97;;;4.70;99.90;;;;;;2082219;28;20412;-67
2021/05/03 02:24:23;;;;;;;6.95;6.03;;;4.70;99.90;;;;;;2082001;28;20030;-67
2021/05/03 02:25:23;;;;;;;6.72;6.07;;;4.70;99.90;;;;;;2082240;28;20025;-67
2021/05/03 02:26:24;;;;;;;8.88;6.75;;;4.70;99.90;;;;;;2082215;28;20026;-67
2021/05/03 02:27:24;;;;;;;7.88;6.55;;;4.60;99.90;;;;;;2082055;28;20029;-66
2021/05/03 02:28:25;;;;;;;7.22;6.63;;;4.70;99.90;;;;;;2082022;28;20045;-67
2021/05/03 02:29:25;;;;;;;7.43;6.72;;;4.60;99.90;;;;;;2081942;28;20025;-67
2021/05/03 02:30:27;;;;;;;8.25;6.25;;;4.60;99.90;;;;;;2082175;28;20022;-67
2021/05/03 02:31:27;;;;;;;6.00;5.50;;;4.60;99.90;;;;;;2082124;28;20021;-67
2021/05/03 02:32:28;;;;;;;11.77;6.70;;;4.60;99.90;;;;;;2081817;28;20625;-67
2021/05/03 02:33:29;;;;;;;9.18;6.93;;;4.60;99.90;;;;;;2082060;28;20481;-67
2021/05/03 02:34:30;;;;;;;10.80;7.22;;;4.60;99.90;;;;;;2082125;28;20032;-67
2021/05/03 02:35:33;;;;;;;8.05;6.80;;;4.60;99.90;;;;;;2081956;28;20034;-67
2021/05/03 02:36:33;;;;;;;8.57;6.63;;;4.60;99.90;;;;;;2082380;28;20030;-70
2021/05/03 02:37:34;;;;;;;7.18;6.47;;;4.60;99.90;;;;;;2082068;28;20033;-67
2021/05/03 02:38:35;;;;;;;10.02;6.47;;;4.60;99.90;;;;;;2082263;28;20092;-67
2021/05/03 02:39:36;;;;;;;6.80;6.13;;;4.60;99.90;;;;;;2081948;28;20095;-67
2021/05/03 02:40:36;;;;;;;7.20;6.47;;;4.60;99.90;;;;;;2082029;28;20381;-67
2021/05/03 02:41:37;;;;;;;8.77;7.88;;;4.60;99.90;;;;;;2081895;28;20025;-67
2021/05/03 02:42:38;;;;;;;8.10;7.10;;;4.60;99.90;;;;;;2081100;28;20049;-67
2021/05/03 02:43:39;;;;;;;9.02;7.85;;;4.50;99.90;;;;;;2087212;28;20083;-67
2021/05/03 02:44:40;;;;;;;8.40;7.05;;;4.50;99.90;;;;;;2082065;28;20103;-67
2021/05/03 02:45:41;;;;;;;8.02;7.18;;;4.60;99.90;;;;;;2081855;28;20052;-67
2021/05/03 02:46:41;;;;;;;9.10;6.82;;;4.60;99.90;;;;;;2088745;28;20021;-67
2021/05/03 02:47:43;;;;;;;9.05;7.05;;;4.50;99.90;;;;;;2089551;28;20322;-67
2021/05/03 02:48:44;;;;;;;7.80;6.40;;;4.60;99.90;;;;;;2089735;28;20024;-67
2021/05/03 02:49:45;;;;;;;8.05;6.88;;;4.50;99.90;;;;;;2089389;28;20029;-67
2021/05/03 02:50:45;;;;;;;7.82;7.03;;;4.50;99.90;;;;;;2089826;28;20020;-67
2021/05/03 02:51:46;;;;;;;8.18;7.20;;;4.60;99.90;;;;;;2090271;28;20035;-67
2021/05/03 02:52:47;;;;;;;7.60;6.20;;;4.50;99.90;;;;;;2089566;28;20036;-67
2021/05/03 02:53:48;;;;;;;9.75;7.05;;;4.50;99.90;;;;;;2090053;28;20056;-67
2021/05/03 02:54:48;;;;;;;8.50;7.57;;;4.50;99.90;;;;;;2083105;28;20083;-67
2021/05/03 02:55:49;;;;;;;13.90;7.45;;;4.50;99.90;;;;;;2083962;28;20028;-67
2021/05/03 02:56:49;;;;;;;8.82;7.00;;;4.50;99.90;;;;;;2090264;28;20032;-67
2021/05/03 02:57:51;;;;;;;9.15;7.43;;;4.50;99.90;;;;;;2090124;28;20036;-67
2021/05/03 02:58:51;;;;;;;8.18;7.20;;;4.50;99.90;;;;;;2084462;28;20020;-67
2021/05/03 02:59:52;;;;;;;9.45;7.35;;;4.50;99.90;;;;;;2082003;28;20033;-67
2021/05/03 03:00:53;;;;;;;9.00;7.88;;;4.50;99.90;;;;;;2081690;28;20825;-67
2021/05/03 03:01:53;;;;;;;10.65;8.02;;;4.50;99.90;;;;;;2080998;28;20021;-67
2021/05/03 03:02:54;;;;;;;10.82;9.00;;;4.50;99.90;;;;;;2080757;28;20353;-67
2021/05/03 03:03:55;;;;;;;12.85;9.23;;;4.50;99.90;;;;;;2080949;28;20469;-67
2021/05/03 03:04:55;;;;;;;10.23;8.73;;;4.50;99.90;;;;;;2080913;28;20121;-67
2021/05/03 03:05:57;;;;;;;9.52;8.00;;;4.50;99.90;;;;;;2086181;28;20021;-67
2021/05/03 03:06:57;;;;;;;11.63;7.25;;;4.50;99.90;;;;;;2086016;28;20484;-67
2021/05/03 03:08:01;;;;;;;10.50;8.52;;;4.50;99.90;;;;;;2089303;28;20439;-67
2021/05/03 03:09:03;;;;;;;11.25;8.02;;;4.50;99.90;;;;;;2089010;28;20147;-67
2021/05/03 03:10:04;;;;;;;9.27;8.02;;;4.50;99.90;;;;;;2089285;28;20021;-67
2021/05/03 03:11:05;;;;;;;9.60;7.65;;;4.60;99.90;;;;;;2089072;28;20029;-67
2021/05/03 03:12:08;;;;;;;11.60;7.85;;;4.50;99.90;;;;;;2088927;28;20029;-67
2021/05/03 03:13:09;;;;;;;11.02;8.05;;;4.50;99.90;;;;;;2087017;28;20029;-67
2021/05/03 03:14:09;;;;;;;11.02;8.25;;;4.50;99.90;;;;;;2087090;28;20037;-67
2021/05/03 03:15:11;;;;;;;10.90;8.43;;;4.50;99.90;;;;;;2088090;28;20554;-67
2021/05/03 03:16:14;;;;;;;11.57;8.93;;;4.50;99.90;;;;;;2088692;28;20033;-67
2021/05/03 03:17:15;;;;;;;26.45;8.15;;;4.50;99.90;;;;;;2088942;28;20039;-67
2021/05/03 03:18:17;;;;;;;12.32;8.55;;;4.50;99.90;;;;;;2089324;28;20755;-67
2021/05/03 03:19:18;;;;;;;9.10;7.40;;;4.50;99.90;;;;;;2086950;28;20028;-66
2021/05/03 03:20:20;;;;;;;13.25;8.23;;;4.50;99.90;;;;;;2080722;28;20030;-67
2021/05/03 03:21:20;;;;;;;9.07;7.65;;;4.50;99.90;;;;;;2079681;28;20093;-67
2021/05/03 03:22:21;;;;;;;9.75;8.35;;;4.50;99.90;;;;;;2086088;28;20090;-67
2021/05/03 03:23:22;;;;;;;12.15;8.20;;;4.50;99.90;;;;;;2088818;28;20035;-67
2021/05/03 03:24:22;;;;;;;10.52;7.78;;;4.50;99.90;;;;;;2088596;28;20123;-67
2021/05/03 03:25:23;;;;;;;10.68;7.43;;;4.50;99.90;;;;;;2088540;28;20036;-67
2021/05/03 03:26:24;;;;;;;10.27;8.50;;;4.50;99.90;;;;;;2088715;28;20112;-67
2021/05/03 03:27:24;;;;;;;11.50;8.00;;;4.50;99.90;;;;;;2088198;28;20033;-67
2021/05/03 03:28:25;;;;;;;10.30;7.65;;;4.50;99.90;;;;;;2079540;28;20491;-67
2021/05/03 03:29:26;;;;;;;10.98;9.30;;;4.50;99.90;;;;;;2079717;28;20087;-67
2021/05/03 03:30:26;;;;;;;13.52;9.70;;;4.50;99.90;;;;;;2080361;28;20037;-67
2021/05/03 03:31:27;;;;;;;10.77;7.43;;;4.50;99.90;;;;;;2080232;28;20108;-67
2021/05/03 03:32:27;;;;;;;12.77;8.95;;;4.50;99.90;;;;;;2079412;28;20397;-67
2021/05/03 03:33:28;;;;;;;10.10;8.13;;;4.50;99.90;;;;;;2078956;28;20638;-67
2021/05/03 03:34:29;;;;;;;10.60;8.18;;;4.50;99.90;;;;;;2086195;28;20056;-67
2021/05/03 03:35:29;;;;;;;12.55;9.02;;;4.50;99.90;;;;;;2086600;28;20433;-67
2021/05/03 03:36:30;;;;;;;11.40;9.18;;;4.50;99.90;;;;;;2085641;28;20365;-67
2021/05/03 03:37:30;;;;;;;11.57;8.70;;;4.50;99.90;;;;;;2079638;28;20072;-67
2021/05/03 03:38:31;;;;;;;12.48;9.48;;;4.50;99.90;;;;;;2080434;28;20044;-67
2021/05/03 03:39:32;;;;;;;14.13;9.38;;;4.50;99.90;;;;;;2080350;28;20104;-67
2021/05/03 03:40:32;;;;;;;13.02;9.27;;;4.50;99.90;;;;;;2080624;28;20037;-67
2021/05/03 03:41:34;;;;;;;14.73;9.80;;;4.50;99.90;;;;;;2080348;28;20542;-67
2021/05/03 03:42:34;;;;;;;16.83;9.32;;;4.50;99.90;;;;;;2079470;28;20025;-67
2021/05/03 03:43:35;;;;;;;13.02;8.82;;;4.50;99.90;;;;;;2086340;28;20033;-67
2021/05/03 03:44:36;;;;;;;13.45;9.88;;;4.50;99.90;;;;;;2081819;28;20473;-67
2021/05/03 03:45:37;;;;;;;11.05;9.38;;;4.40;99.90;;;;;;2087184;28;20032;-67
2021/05/03 03:46:37;;;;;;;14.05;9.48;;;4.40;99.90;;;;;;2081650;28;20401;-67
2021/05/03 03:47:38;;;;;;;12.05;8.75;;;4.40;99.90;;;;;;2080539;28;20108;-67
2021/05/03 03:48:39;;;;;;;12.85;9.85;;;4.40;99.90;;;;;;2080277;28;20032;-67
2021/05/03 03:49:39;;;;;;;10.82;9.15;;;4.40;99.90;;;;;;2080389;28;20372;-67
2021/05/03 03:50:40;;;;;;;13.70;10.27;;;4.40;99.90;;;;;;2080032;28;20029;-67
2021/05/03 03:51:40;;;;;;;12.10;9.48;;;4.40;99.90;;;;;;2080552;28;20064;-67
2021/05/03 03:52:41;;;;;;;14.48;10.02;;;4.50;99.90;;;;;;2082716;28;20096;-67
2021/05/03 03:53:42;;;;;;;11.88;9.40;;;4.40;99.90;;;;;;2088823;28;20017;-67
2021/05/03 03:54:42;;;;;;;10.27;9.20;;;4.50;99.90;;;;;;2088387;28;20108;-67
2021/05/03 03:55:43;;;;;;;18.17;10.02;;;4.50;99.90;;;;;;2081197;28;20037;-67
2021/05/03 03:56:44;;;;;;;13.73;9.23;;;4.50;99.90;;;;;;2079850;28;20038;-67
2021/05/03 03:57:44;;;;;;;11.23;9.77;;;4.50;99.90;;;;;;2085135;28;20033;-67
2021/05/03 03:58:45;;;;;;;12.30;9.30;;;4.50;99.90;;;;;;2086467;28;20120;-67
2021/05/03 03:59:50;;;;;;;11.68;10.10;;;4.50;99.90;;;;;;2088541;28;20039;-67
2021/05/03 04:00:51;;;;;;;14.00;9.90;;;4.50;99.90;;;;;;2088350;28;20071;-67
2021/05/03 04:01:51;;;;;;;12.13;9.13;;;4.40;99.90;;;;;;2088546;28;20021;-67
2021/05/03 04:02:53;;;;;;;11.10;8.45;;;4.50;99.90;;;;;;2087833;28;20033;-67
2021/05/03 04:03:57;;;;;;;11.93;9.73;;;4.50;99.90;;;;;;2088556;28;20476;-67
2021/05/03 04:05:10;;;;;;;11.93;9.65;;;4.50;99.90;;;;;;2088034;28;20103;-67
2021/05/03 04:06:34;;;;;;;14.02;9.68;;;4.50;99.90;;;;;;2080732;28;20030;-68
2021/05/03 04:09:54;;;;;;;13.23;10.00;;;4.50;99.90;;;;;;2080140;28;20022;-68
2021/05/03 04:13:59;;;;;;;14.18;9.57;;;4.50;99.90;;;;;;2062237;28;20045;-67
2021/05/03 04:23:53;;;;;;;9.68;8.75;;;4.60;99.90;;;;;;2079641;28;20022;-67
2021/05/03 04:25:40;;;;;;;13.05;10.32;;;4.60;99.90;;;;;;2079862;28;20069;-67
2021/05/03 04:26:15;;;;;;;12.60;9.30;;;4.60;99.90;;;;;;2072367;28;20045;-67
2021/05/03 04:27:17;;;;;;;12.30;9.23;;;4.50;99.90;;;;;;2080043;28;20033;-68
2021/05/03 04:28:17;;;;;;;11.88;9.63;;;4.60;99.90;;;;;;2079486;28;20032;-68
2021/05/03 04:29:18;;;;;;;11.88;10.00;;;4.60;99.90;;;;;;2080213;28;20029;-67
2021/05/03 04:30:19;;;;;;;14.73;9.43;;;4.60;99.90;;;;;;2079479;28;20036;-67
2021/05/03 04:31:21;;;;;;;14.85;9.52;;;4.60;99.90;;;;;;2081666;28;20097;-67
2021/05/03 04:32:21;;;;;;;12.27;9.35;;;4.60;99.90;;;;;;2080516;28;20025;-67
2021/05/03 04:33:23;;;;;;;10.95;8.68;;;4.60;99.90;;;;;;2080492;28;20061;-67
2021/05/03 04:34:24;;;;;;;10.50;9.35;;;4.60;99.90;;;;;;2076545;28;20472;-67
2021/05/03 04:35:24;;;;;;;9.95;8.77;;;4.60;99.90;;;;;;2085231;28;20391;-67
2021/05/03 04:36:25;;;;;;;10.38;9.25;;;4.70;99.90;;;;;;2082767;28;20035;-67
2021/05/03 04:37:25;;;;;;;12.93;10.80;;;4.70;99.90;;;;;;2078873;28;20034;-67
2021/05/03 04:38:26;;;;;;;13.70;9.85;;;4.70;99.90;;;;;;2074057;28;20065;-67
2021/05/03 04:39:27;;;;;;;10.10;9.10;;;4.70;99.90;;;;;;2074444;28;20036;-67
2021/05/03 04:40:28;;;;;;;11.85;9.73;;;4.70;99.90;;;;;;2073851;28;20049;-67
2021/05/03 04:41:28;;;;;;;16.38;10.13;;;4.70;99.90;;;;;;2074613;28;20083;-67
2021/05/03 04:42:29;;;;;;;11.68;9.82;;;4.70;99.90;;;;;;2073289;28;20123;-67
2021/05/03 04:43:30;;;;;;;10.55;9.45;;;4.70;99.90;;;;;;2077008;28;20473;-67
2021/05/03 04:44:30;;;;;;;11.38;10.27;;;4.80;99.90;;;;;;2075209;28;20057;-67
2021/05/03 04:45:31;;;;;;;11.63;9.70;;;4.80;99.90;;;;;;2077885;28;20025;-67
2021/05/03 04:46:32;;;;;;;10.60;9.02;;;4.80;99.90;;;;;;2073919;28;20122;-67
2021/05/03 04:47:33;;;;;;;11.50;9.65;;;4.80;99.90;;;;;;2074416;28;20022;-67
2021/05/03 04:48:34;;;;;;;14.93;9.88;;;4.80;99.90;;;;;;2077759;28;20071;-67
2021/05/03 04:49:34;;;;;;;12.63;10.07;;;4.80;99.90;;;;;;2076392;28;20095;-68
2021/05/03 04:50:35;;;;;;;11.00;9.02;;;4.80;99.90;;;;;;2075874;28;20083;-68
2021/05/03 04:51:35;;;;;;;11.65;9.68;;;4.90;99.90;;;;;;2077784;28;20029;-67
2021/05/03 04:52:36;;;;;;;13.07;10.20;;;4.90;99.90;;;;;;2077813;28;20060;-67
2021/05/03 04:53:37;;;;;;;12.50;9.90;;;4.90;99.90;;;;;;2078285;28;20473;-67
2021/05/03 04:54:37;;;;;;;11.10;9.90;;;4.90;99.90;;;;;;2076654;28;20048;-67
2021/05/03 04:55:38;;;;;;;11.15;9.65;;;5.00;99.90;;;;;;2078838;28;20053;-67
2021/05/03 04:56:38;;;;;;;10.43;9.00;;;5.00;99.90;;;;;;2074415;28;20152;-67
2021/05/03 04:57:39;;;;;;;10.52;9.48;;;5.00;99.90;;;;;;2075933;28;20108;-67
2021/05/03 04:58:39;;;;;;;13.27;9.07;;;5.00;99.90;;;;;;2074029;28;20030;-67
2021/05/03 04:59:40;;;;;;;12.77;9.95;;;5.10;99.90;;;;;;2079131;28;20068;-67
2021/05/03 05:00:41;;;;;;;10.32;8.80;;;5.10;99.90;;;;;;2079137;28;20314;-67
2021/05/03 05:01:41;;;;;;;11.68;8.63;;;5.10;99.90;;;;;;2076378;28;20354;-67
2021/05/03 05:02:42;;;;;;;13.65;9.80;;;5.10;99.90;;;;;;2078547;28;20029;-67
2021/05/03 05:03:42;;;;;;;11.05;9.52;;;5.20;99.90;;;;;;2074892;28;20037;-67
2021/05/03 05:04:43;;;;;;;11.45;9.88;;;5.20;99.90;;;;;;2078860;28;20037;-67
2021/05/03 05:05:46;;;;;;;10.40;9.27;;;5.20;99.90;;;;;;2075942;28;20033;-67
2021/05/03 05:06:47;;;;;;;12.75;9.32;;;5.30;99.90;;;;;;2079445;28;20017;-67
2021/05/03 05:07:47;;;;;;;9.73;8.73;;;5.30;99.90;;;;;;2078621;28;20091;-67
2021/05/03 05:08:48;;;;;;;12.75;9.65;;;5.30;99.90;;;;;;2081769;28;20684;-67
2021/05/03 05:09:48;;;;;;;12.25;8.82;;;5.40;99.90;;;;;;2080083;28;20021;-67
2021/05/03 05:10:49;;;;;;;10.48;9.38;;;5.40;99.90;;;;;;2077234;28;20041;-67
2021/05/03 05:11:50;;;;;;;11.27;8.65;;;5.40;99.90;;;;;;2081216;28;20021;-67
2021/05/03 05:12:50;;;;;;;11.55;8.70;;;5.50;99.90;;;;;;2080342;28;20021;-67
2021/05/03 05:13:51;;;;;;;12.57;8.98;;;5.50;99.90;;;;;;2078696;28;20021;-67
2021/05/03 05:14:52;;;;;;;11.18;8.85;;;5.60;99.90;;;;;;2081653;28;20025;-67
2021/05/03 05:15:52;;;;;;;11.43;9.05;;;5.70;99.90;;;;;;2079182;28;20033;-67
2021/05/03 05:16:53;;;;;;;12.35;10.10;;;5.70;99.90;;;;;;2078871;28;20104;-67
2021/05/03 05:17:54;;;;;;;10.60;9.38;;;5.70;99.90;;;;;;2079631;28;20115;-67
2021/05/03 05:18:55;;;;;;;15.27;8.50;;;5.80;99.90;;;;;;2075030;28;20101;-67
2021/05/03 05:19:55;;;;;;;13.27;9.13;;;5.90;99.90;;;;;;2080033;28;20025;-67
2021/05/03 05:20:57;;;;;;;9.70;8.70;;;6.00;99.90;;;;;;2079466;28;20025;-67
2021/05/03 05:21:58;;;;;;;9.23;7.38;;;6.00;99.90;;;;;;2081364;28;20457;-67
2021/05/03 05:22:59;;;;;;;10.10;8.27;;;6.10;99.90;;;;;;2073076;28;20361;-67
2021/05/03 05:23:59;;;;;;;9.07;7.65;;;6.20;99.90;;;;;;2080905;28;20080;-67
2021/05/03 05:25:00;;;;;;;8.73;7.80;;;6.30;99.90;;;;;;2081489;28;20442;-67
2021/05/03 05:26:00;;;;;;;9.00;7.90;;;6.40;99.90;;;;;;2083987;28;20028;-67
2021/05/03 05:27:02;;;;;;;9.52;7.85;;;6.50;99.90;;;;;;2081515;28;20029;-67
2021/05/03 05:28:04;;;;;;;11.18;8.07;;;6.50;99.90;;;;;;2081650;28;20053;-68
2021/05/03 05:29:05;;;;;;;11.75;7.70;;;6.60;99.90;;;;;;2079280;28;20025;-67
2021/05/03 05:30:07;;;;;;;9.73;7.38;;;6.70;99.90;;;;;;2076768;28;20477;-68
2021/05/03 05:31:07;;;;;;;8.10;7.30;;;6.80;99.90;;;;;;2076040;28;20029;-67
2021/05/03 05:32:08;;;;;;;10.13;7.80;;;6.90;99.90;;;;;;2076136;28;20033;-67
2021/05/03 05:33:08;;;;;;;10.27;7.70;;;6.90;99.90;;;;;;2079212;28;20044;-67
2021/05/03 05:34:09;;;;;;;7.97;7.18;;;7.00;99.90;;;;;;2079006;28;20048;-67
2021/05/03 05:35:10;;;;;;;8.40;7.10;;;7.10;99.90;;;;;;2079747;28;20471;-68